• pl
  • eng

Awiacja
Military airports TAF 01:00 01.01.1970

TAF EPCE 211400Z 2115/2124 19016G26KT CAVOK BECMG 2117/2119 25015KT
PROB40 TEMPO 2119/2124 5000 SHRA BKN015CB=

TAF AMD EPDA 211525Z 2115/2124 20017G30KT CAVOK BECMG 2116/2118
28017G30KT TEMPO 2116/2124 28022G36KT TSRA BKN034CB=

TAF AMD EPDE 211435Z 2115/2124 CNL=

TAF EPLY 211400Z 2115/2124 18014KT CAVOK=

TAF EPMB 211400Z 2115/2124 19018G28KT CAVOK BECMG 2118/2120 27010KT
9999 BKN030 OVC100 TEMPO 2121/2123 5000 RA SCT015 OVC030=

TAF EPMI 211400Z 2115/2124 18014KT CAVOK
TEMPO 2115/2117 18016G30KT
BECMG 2117/2119 27010KT
TEMPO 2117/2122 27018G40KT 4000 SHRA BKN015CB=

TAF EPMM 211400Z 2115/2124 18010KT CAVOK=

TAF EPOK 211400Z 2115/2124 18012KT CAVOK TEMPO 2115/2118 18015G25KT
BECMG 2118/2 121 27015G30KT TEMPO 2118/2124 7000 SHRA BKN030CB
PROB40 TEMPO 2118/2124 4000 TS RA BKN010 OVC015CB=

TAF EPPR 211400Z 2115/2124 18015KT CAVOK=

TAF EPPW 211400Z 2115/2124 19014KT CAVOK
TEMPO 2115/2118 19016G26KT
BECMG 2118/2120 27014KT
TEMPO 2118/2124 27020G30KT SHRA BKN030CB
PROB30 TEMPO 2118/2120 VRB20G30KT 4000 TSRA SCT015 BKN025CB=

TAF EPSN 211400Z 2115/2124 20016KT CAVOK BECMG 2115/2118 27016KT
TEMPO 2115/2122 27016G38KT 5000 SHRA BKN020CB PROB30 TEMPO
2115/2121 3000 TSRA BKN012CB=

TAF AMD EPTM 211505Z 2115/2124 CNL=
Awiacja.imgw.pl jest pogodowym serwisem informacyjnym
Instytutu Meteorologii i Gospodarki Wodnej Państwowego Instytutu Badawczego.
Copyright IMGW PIB 2009-2011© Wszelkie prawa zastrzeżone.